createdAt,value
2017-10-28T00:00:43.128Z,1020.07
2017-10-28T00:01:43.112Z,1020.08
2017-10-28T00:02:43.111Z,1020.06
2017-10-28T00:03:43.093Z,1020.05
2017-10-28T00:04:43.085Z,1019.98
2017-10-28T00:05:43.072Z,1019.91
2017-10-28T00:06:43.064Z,1019.86
2017-10-28T00:07:43.052Z,1019.84
2017-10-28T00:08:43.048Z,1019.80
2017-10-28T00:09:43.032Z,1019.84
2017-10-28T00:10:43.025Z,1019.84
2017-10-28T00:11:43.014Z,1019.88
2017-10-28T00:12:43.006Z,1019.89
2017-10-28T00:13:42.993Z,1019.85
2017-10-28T00:14:42.988Z,1019.87
2017-10-28T00:15:42.974Z,1019.83
2017-10-28T00:16:42.964Z,1019.81
2017-10-28T00:17:42.955Z,1019.83
2017-10-28T00:18:42.950Z,1019.89
2017-10-28T00:19:42.937Z,1019.93
2017-10-28T00:20:42.924Z,1019.90
2017-10-28T00:21:42.915Z,1019.83
2017-10-28T00:22:42.911Z,1019.78
2017-10-28T00:23:42.893Z,1019.74
2017-10-28T00:24:42.886Z,1019.70
2017-10-28T00:25:42.873Z,1019.73
2017-10-28T00:26:42.864Z,1019.68
2017-10-28T00:27:42.854Z,1019.70
2017-10-28T00:28:42.845Z,1019.63
2017-10-28T00:29:42.833Z,1019.58
2017-10-28T00:30:42.824Z,1019.55
2017-10-28T00:31:42.814Z,1019.52
2017-10-28T00:32:42.803Z,1019.44
2017-10-28T00:33:42.793Z,1019.39
2017-10-28T00:34:42.784Z,1019.28
2017-10-28T00:35:42.774Z,1019.36
2017-10-28T00:36:42.767Z,1019.28
2017-10-28T00:37:42.754Z,1019.33
2017-10-28T00:38:42.748Z,1019.27
2017-10-28T00:39:42.742Z,1019.23
2017-10-28T00:40:42.723Z,1019.22
2017-10-28T00:41:42.717Z,1019.24
2017-10-28T00:42:42.705Z,1019.30
2017-10-28T00:43:42.701Z,1019.33
2017-10-28T00:44:42.683Z,1019.37
2017-10-28T00:45:42.694Z,1019.42
2017-10-28T00:46:42.664Z,1019.46
2017-10-28T00:47:42.658Z,1019.40
2017-10-28T00:48:42.644Z,1019.41
2017-10-28T00:49:42.633Z,1019.41
2017-10-28T00:50:42.625Z,1019.43
2017-10-28T00:51:42.621Z,1019.34
2017-10-28T00:52:42.602Z,1019.34
2017-10-28T00:53:42.594Z,1019.31
2017-10-28T00:54:42.583Z,1019.34
2017-10-28T00:55:42.580Z,1019.34
2017-10-28T00:56:42.565Z,1019.25
2017-10-28T00:57:42.561Z,1019.22
2017-10-28T00:58:42.544Z,1019.15
2017-10-28T00:59:42.534Z,1019.10
2017-10-28T01:00:42.522Z,1019.11
2017-10-28T01:01:42.511Z,1019.13
2017-10-28T01:02:42.503Z,1019.08
2017-10-28T01:03:42.497Z,1019.11
2017-10-28T01:04:42.489Z,1019.05
2017-10-28T01:05:42.473Z,1019.09
2017-10-28T01:06:42.461Z,1019.08
2017-10-28T01:07:42.453Z,1019.01
2017-10-28T01:08:42.444Z,1019.01
2017-10-28T01:09:42.434Z,1018.91
2017-10-28T01:10:42.420Z,1018.91
2017-10-28T01:11:42.425Z,1018.87
2017-10-28T01:12:42.405Z,1018.87
2017-10-28T01:13:42.393Z,1018.80
2017-10-28T01:14:42.382Z,1018.80
2017-10-28T01:15:42.373Z,1018.83
2017-10-28T01:16:42.360Z,1018.80
2017-10-28T01:17:42.351Z,1018.81
2017-10-28T01:18:42.345Z,1018.81
2017-10-28T01:19:42.332Z,1018.79
2017-10-28T01:20:42.321Z,1018.85
2017-10-28T01:21:42.310Z,1018.90
2017-10-28T01:22:42.300Z,1018.88
2017-10-28T01:23:42.292Z,1018.84
2017-10-28T01:24:42.285Z,1018.84
2017-10-28T01:25:42.272Z,1018.84
2017-10-28T01:26:42.263Z,1018.79
2017-10-28T01:27:42.251Z,1018.71
2017-10-28T01:28:42.249Z,1018.74
2017-10-28T01:29:42.229Z,1018.72
2017-10-28T01:30:42.223Z,1018.69
2017-10-28T01:31:42.214Z,1018.68
2017-10-28T01:32:42.206Z,1018.61
2017-10-28T01:33:42.188Z,1018.49
2017-10-28T01:34:42.183Z,1018.47
2017-10-28T01:35:42.171Z,1018.36
2017-10-28T01:36:42.163Z,1018.34
2017-10-28T01:37:42.149Z,1018.37
2017-10-28T01:38:42.142Z,1018.30
2017-10-28T01:39:42.130Z,1018.32
2017-10-28T01:40:42.122Z,1018.33
2017-10-28T01:41:42.109Z,1018.31
2017-10-28T01:42:42.101Z,1018.28
2017-10-28T01:43:42.089Z,1018.28
2017-10-28T01:44:42.081Z,1018.35
2017-10-28T01:45:42.070Z,1018.27
2017-10-28T01:46:42.068Z,1018.30
2017-10-28T01:47:42.049Z,1018.28
2017-10-28T01:48:42.038Z,1018.27
2017-10-28T01:49:42.028Z,1018.27
2017-10-28T01:50:42.017Z,1018.24
2017-10-28T01:51:42.010Z,1018.20
2017-10-28T01:52:42.002Z,1018.25
2017-10-28T01:53:41.992Z,1018.19
2017-10-28T01:54:41.978Z,1018.13
2017-10-28T01:55:41.967Z,1018.12
2017-10-28T01:56:41.956Z,1018.10
2017-10-28T01:57:41.946Z,1018.03
2017-10-28T01:58:41.940Z,1018.05
2017-10-28T01:59:41.931Z,1018.04
2017-10-28T02:00:41.924Z,1017.95
2017-10-28T02:01:41.916Z,1017.96
2017-10-28T02:02:41.896Z,1017.95
2017-10-28T02:03:41.892Z,1017.98
2017-10-28T02:04:41.878Z,1017.88
2017-10-28T02:05:41.864Z,1017.86
2017-10-28T02:06:41.856Z,1017.83
2017-10-28T02:07:41.851Z,1017.81
2017-10-28T02:08:41.837Z,1017.81
2017-10-28T02:09:41.835Z,1017.79
2017-10-28T02:10:41.817Z,1017.71
2017-10-28T02:11:41.809Z,1017.66
2017-10-28T02:12:41.797Z,1017.68
2017-10-28T02:13:41.789Z,1017.68
2017-10-28T02:14:41.775Z,1017.71
2017-10-28T02:15:41.771Z,1017.67
2017-10-28T02:16:41.757Z,1017.67
2017-10-28T02:17:41.744Z,1017.65
2017-10-28T02:18:41.735Z,1017.62
2017-10-28T02:19:41.730Z,1017.60
2017-10-28T02:20:41.720Z,1017.61
2017-10-28T02:21:41.703Z,1017.63
2017-10-28T02:22:41.695Z,1017.59
2017-10-28T02:23:41.687Z,1017.58
2017-10-28T02:24:41.674Z,1017.62
2017-10-28T02:25:41.665Z,1017.60
2017-10-28T02:26:41.669Z,1017.56
2017-10-28T02:27:41.646Z,1017.53
2017-10-28T02:28:41.638Z,1017.55
2017-10-28T02:29:41.631Z,1017.55
2017-10-28T02:30:41.614Z,1017.46
2017-10-28T02:31:41.604Z,1017.46
2017-10-28T02:32:41.594Z,1017.44
2017-10-28T02:33:41.588Z,1017.36
2017-10-28T02:34:41.573Z,1017.27
2017-10-28T02:35:41.564Z,1017.26
2017-10-28T02:36:41.557Z,1017.32
2017-10-28T02:37:41.542Z,1017.30
2017-10-28T02:38:41.533Z,1017.29
2017-10-28T02:39:41.524Z,1017.25
2017-10-28T02:40:41.517Z,1017.22
2017-10-28T02:41:41.503Z,1017.24
2017-10-28T02:42:41.492Z,1017.29
2017-10-28T02:43:41.481Z,1017.23
2017-10-28T02:44:41.471Z,1017.20
2017-10-28T02:45:41.461Z,1017.12
2017-10-28T02:46:41.452Z,1017.04
2017-10-28T02:47:41.449Z,1016.94
2017-10-28T02:48:41.445Z,1016.88
2017-10-28T02:49:41.423Z,1016.89
2017-10-28T02:50:41.410Z,1016.97
2017-10-28T02:51:41.403Z,1016.93
2017-10-28T02:52:41.391Z,1016.90
2017-10-28T02:53:41.381Z,1016.93
2017-10-28T02:54:41.374Z,1016.91
2017-10-28T02:55:41.362Z,1016.96
2017-10-28T02:56:41.352Z,1016.99
2017-10-28T02:57:41.340Z,1017.02
2017-10-28T02:58:41.329Z,1017.01
2017-10-28T02:59:41.326Z,1017.01
2017-10-28T03:00:41.311Z,1017.04
2017-10-28T03:01:41.300Z,1017.06
2017-10-28T03:02:41.291Z,1017.01
2017-10-28T03:03:41.281Z,1016.88
2017-10-28T03:04:41.269Z,1016.89
2017-10-28T03:05:41.260Z,1016.84
2017-10-28T03:06:41.250Z,1016.79
2017-10-28T03:07:41.244Z,1016.77
2017-10-28T03:08:41.228Z,1016.75
2017-10-28T03:09:41.218Z,1016.66
2017-10-28T03:10:41.207Z,1016.60
2017-10-28T03:11:41.206Z,1016.57
2017-10-28T03:12:41.183Z,1016.51
2017-10-28T03:13:41.177Z,1016.58
2017-10-28T03:14:41.164Z,1016.60
2017-10-28T03:15:41.155Z,1016.66
2017-10-28T03:16:41.144Z,1016.63
2017-10-28T03:17:41.139Z,1016.67
2017-10-28T03:18:41.124Z,1016.62
2017-10-28T03:19:41.115Z,1016.65
2017-10-28T03:20:41.106Z,1016.58
2017-10-28T03:21:41.095Z,1016.54
2017-10-28T03:22:41.086Z,1016.54
2017-10-28T03:23:41.077Z,1016.54
2017-10-28T03:24:41.067Z,1016.38
2017-10-28T03:25:41.056Z,1016.43
2017-10-28T03:26:41.043Z,1016.34
2017-10-28T03:27:41.035Z,1016.37
2017-10-28T03:28:41.025Z,1016.33
2017-10-28T03:29:41.013Z,1016.31
2017-10-28T03:30:41.005Z,1016.28
2017-10-28T03:31:40.991Z,1016.19
2017-10-28T03:32:40.980Z,1016.17
2017-10-28T03:33:40.976Z,1016.17
2017-10-28T03:34:40.962Z,1016.24
2017-10-28T03:35:40.952Z,1016.25
2017-10-28T03:36:40.947Z,1016.29
2017-10-28T03:37:40.929Z,1016.21
2017-10-28T03:38:40.920Z,1016.21
2017-10-28T03:39:40.909Z,1016.16
2017-10-28T03:40:40.900Z,1016.10
2017-10-28T03:41:40.889Z,1016.15
2017-10-28T03:42:40.887Z,1016.19
2017-10-28T03:43:40.868Z,1016.23
2017-10-28T03:44:40.856Z,1016.24
2017-10-28T03:45:40.846Z,1016.27
2017-10-28T03:46:40.839Z,1016.30
2017-10-28T03:47:40.826Z,1016.29
2017-10-28T03:48:40.816Z,1016.19
2017-10-28T03:49:40.806Z,1016.16
2017-10-28T03:50:40.797Z,1016.07
2017-10-28T03:51:40.783Z,1016.20
2017-10-28T03:52:40.777Z,1016.27
2017-10-28T03:53:40.762Z,1016.19
2017-10-28T03:54:40.765Z,1016.13
2017-10-28T03:55:40.744Z,1016.11
2017-10-28T03:56:40.739Z,1016.10
2017-10-28T03:57:40.722Z,1016.02
2017-10-28T03:58:40.714Z,1016.00
2017-10-28T03:59:40.704Z,1015.92
2017-10-28T04:00:40.703Z,1016.05
2017-10-28T04:01:40.681Z,1016.09
2017-10-28T04:02:40.678Z,1016.05
2017-10-28T04:03:40.659Z,1016.01
2017-10-28T04:04:40.695Z,1015.98
2017-10-28T04:05:40.639Z,1015.94
2017-10-28T04:06:40.628Z,1015.92
2017-10-28T04:07:40.617Z,1015.86
2017-10-28T04:08:40.607Z,1015.84
2017-10-28T04:09:40.595Z,1015.98
2017-10-28T04:10:40.590Z,1016.01
2017-10-28T04:11:40.578Z,1015.95
2017-10-28T04:12:40.572Z,1015.90
2017-10-28T04:13:40.556Z,1015.79
2017-10-28T04:14:40.544Z,1015.72
2017-10-28T04:15:40.534Z,1015.69
2017-10-28T04:16:40.523Z,1015.64
2017-10-28T04:17:40.511Z,1015.56
2017-10-28T04:18:40.506Z,1015.49
2017-10-28T04:19:40.495Z,1015.39
2017-10-28T04:20:40.482Z,1015.47
2017-10-28T04:21:40.472Z,1015.49
2017-10-28T04:22:40.462Z,1015.53
2017-10-28T04:23:40.451Z,1015.50
2017-10-28T04:24:40.440Z,1015.47
2017-10-28T04:25:40.429Z,1015.50
2017-10-28T04:26:40.419Z,1015.56
2017-10-28T04:27:40.409Z,1015.65
2017-10-28T04:28:40.398Z,1015.65
2017-10-28T04:29:40.388Z,1015.68
2017-10-28T04:30:40.389Z,1015.63
2017-10-28T04:31:40.367Z,1015.60
2017-10-28T04:32:40.358Z,1015.56
2017-10-28T04:33:40.344Z,1015.52
2017-10-28T04:34:40.341Z,1015.48
2017-10-28T04:35:40.337Z,1015.43
2017-10-28T04:36:40.319Z,1015.40
2017-10-28T04:37:40.304Z,1015.40
2017-10-28T04:38:40.292Z,1015.49
2017-10-28T04:39:40.288Z,1015.49
2017-10-28T04:40:40.273Z,1015.45
2017-10-28T04:41:40.261Z,1015.27
2017-10-28T04:42:40.258Z,1015.24
2017-10-28T04:43:40.246Z,1015.29
2017-10-28T04:44:40.229Z,1015.30
2017-10-28T04:45:40.219Z,1015.27
2017-10-28T04:46:40.210Z,1015.25
2017-10-28T04:47:40.198Z,1015.24
2017-10-28T04:48:40.193Z,1015.18
2017-10-28T04:49:40.180Z,1015.08
2017-10-28T04:50:40.167Z,1015.04
2017-10-28T04:51:40.164Z,1015.19
2017-10-28T04:52:40.154Z,1015.19
2017-10-28T04:53:40.139Z,1015.13
2017-10-28T04:54:40.126Z,1015.19
2017-10-28T04:55:40.120Z,1015.23
2017-10-28T04:56:40.106Z,1015.25
2017-10-28T04:57:40.096Z,1015.14
2017-10-28T04:58:40.085Z,1015.13
2017-10-28T04:59:40.081Z,1015.12
2017-10-28T05:00:40.064Z,1015.14
2017-10-28T05:01:40.053Z,1014.99
2017-10-28T05:02:40.043Z,1014.95
2017-10-28T05:03:40.033Z,1014.99
2017-10-28T05:04:40.023Z,1014.99
2017-10-28T05:05:40.011Z,1014.93
2017-10-28T05:06:40.007Z,1014.91
2017-10-28T05:07:39.991Z,1014.96
2017-10-28T05:08:39.981Z,1014.96
2017-10-28T05:09:39.969Z,1014.91
2017-10-28T05:10:39.965Z,1014.91
2017-10-28T05:11:39.949Z,1014.87
2017-10-28T05:12:39.940Z,1014.92
2017-10-28T05:13:39.927Z,1014.86
2017-10-28T05:14:39.918Z,1014.84
2017-10-28T05:15:39.908Z,1014.76
2017-10-28T05:16:39.894Z,1014.76
2017-10-28T05:17:39.891Z,1014.66
2017-10-28T05:18:39.883Z,1014.63
2017-10-28T05:19:39.867Z,1014.60
2017-10-28T05:20:39.853Z,1014.58
2017-10-28T05:21:39.845Z,1014.56
2017-10-28T05:22:39.838Z,1014.49
2017-10-28T05:23:39.838Z,1014.52
2017-10-28T05:24:39.814Z,1014.57
2017-10-28T05:25:39.802Z,1014.58
2017-10-28T05:26:39.794Z,1014.65
2017-10-28T05:27:39.782Z,1014.60
2017-10-28T05:28:39.775Z,1014.51
2017-10-28T05:29:39.761Z,1014.52
2017-10-28T05:30:39.752Z,1014.51
2017-10-28T05:31:39.741Z,1014.51
2017-10-28T05:32:39.731Z,1014.52
2017-10-28T05:33:39.720Z,1014.45
2017-10-28T05:34:39.714Z,1014.43
2017-10-28T05:35:39.704Z,1014.33
2017-10-28T05:36:39.696Z,1014.21
2017-10-28T05:37:39.684Z,1014.22
2017-10-28T05:38:39.667Z,1014.16
2017-10-28T05:39:39.657Z,1014.20
2017-10-28T05:40:39.647Z,1014.09
2017-10-28T05:41:39.637Z,1014.09
2017-10-28T05:42:39.627Z,1014.01
2017-10-28T05:43:39.616Z,1014.03
2017-10-28T05:44:39.602Z,1014.02
2017-10-28T05:45:39.597Z,1014.04
2017-10-28T05:46:39.587Z,1014.10
2017-10-28T05:47:39.576Z,1014.02
2017-10-28T05:48:39.563Z,1014.00
2017-10-28T05:49:39.552Z,1014.01
2017-10-28T05:50:39.544Z,1013.94
2017-10-28T05:51:39.531Z,1013.95
2017-10-28T05:52:39.522Z,1013.86
2017-10-28T05:53:39.510Z,1013.78
2017-10-28T05:54:39.501Z,1013.64
2017-10-28T05:55:39.489Z,1013.63
2017-10-28T05:56:39.479Z,1013.58
2017-10-28T05:57:39.468Z,1013.48
2017-10-28T05:58:39.461Z,1013.48
2017-10-28T05:59:39.448Z,1013.55
2017-10-28T06:00:39.438Z,1013.53
2017-10-28T06:01:39.427Z,1013.55
2017-10-28T06:02:39.417Z,1013.46
2017-10-28T06:03:39.403Z,1013.53
2017-10-28T06:04:39.395Z,1013.52
2017-10-28T06:05:39.388Z,1013.50
2017-10-28T06:06:39.373Z,1013.48
2017-10-28T06:07:39.362Z,1013.50
2017-10-28T06:08:39.353Z,1013.56
2017-10-28T06:09:39.341Z,1013.51
2017-10-28T06:10:39.331Z,1013.61
2017-10-28T06:11:39.321Z,1013.66
2017-10-28T06:12:39.310Z,1013.70
2017-10-28T06:13:39.301Z,1013.62
2017-10-28T06:14:39.290Z,1013.64
2017-10-28T06:15:39.280Z,1013.55
2017-10-28T06:16:39.271Z,1013.52
2017-10-28T06:17:39.260Z,1013.51
2017-10-28T06:18:39.253Z,1013.52
2017-10-28T06:19:39.238Z,1013.43
2017-10-28T06:20:39.230Z,1013.53
2017-10-28T06:21:39.217Z,1013.65
2017-10-28T06:22:39.214Z,1013.67
2017-10-28T06:23:39.199Z,1013.71
2017-10-28T06:24:39.189Z,1013.71
2017-10-28T06:25:39.176Z,1013.83
2017-10-28T06:26:39.168Z,1013.83
2017-10-28T06:27:39.153Z,1013.92
2017-10-28T06:28:39.152Z,1013.91
2017-10-28T06:29:39.134Z,1013.90
2017-10-28T06:30:39.124Z,1013.84
2017-10-28T06:31:39.121Z,1013.87
2017-10-28T06:32:39.116Z,1013.94
2017-10-28T06:33:39.090Z,1013.93
2017-10-28T06:34:39.091Z,1013.95
2017-10-28T06:35:39.071Z,1013.98
2017-10-28T06:36:39.062Z,1013.93
2017-10-28T06:37:39.054Z,1013.93
2017-10-28T06:38:39.043Z,1013.85
2017-10-28T06:39:39.027Z,1013.74
2017-10-28T06:40:39.018Z,1013.78
2017-10-28T06:41:39.008Z,1013.70
2017-10-28T06:42:39.007Z,1013.73
2017-10-28T06:43:38.988Z,1013.67
2017-10-28T06:44:38.978Z,1013.71
2017-10-28T06:45:38.964Z,1013.63
2017-10-28T06:46:38.956Z,1013.63
2017-10-28T06:47:38.946Z,1013.65
2017-10-28T06:48:38.936Z,1013.58
2017-10-28T06:49:38.925Z,1013.60
2017-10-28T06:50:38.912Z,1013.60
2017-10-28T06:51:38.906Z,1013.44
2017-10-28T06:52:38.892Z,1013.52
2017-10-28T06:53:38.885Z,1013.43
2017-10-28T06:54:38.879Z,1013.47
2017-10-28T06:55:38.864Z,1013.51
2017-10-28T06:56:38.851Z,1013.56
2017-10-28T06:57:38.849Z,1013.57
2017-10-28T06:58:38.833Z,1013.55
2017-10-28T06:59:38.820Z,1013.53
2017-10-28T07:00:38.813Z,1013.52
2017-10-28T07:01:38.799Z,1013.40
2017-10-28T07:02:38.791Z,1013.35
2017-10-28T07:03:38.783Z,1013.38
2017-10-28T07:04:38.771Z,1013.41
2017-10-28T07:05:38.765Z,1013.33
2017-10-28T07:06:38.758Z,1013.35
2017-10-28T07:07:38.738Z,1013.27
2017-10-28T07:08:38.729Z,1013.40
2017-10-28T07:09:38.717Z,1013.26
2017-10-28T07:10:38.713Z,1013.34
2017-10-28T07:11:38.698Z,1013.27
2017-10-28T07:12:38.686Z,1013.26
2017-10-28T07:13:38.679Z,1013.26
2017-10-28T07:14:38.668Z,1013.25
2017-10-28T07:15:38.656Z,1013.19
2017-10-28T07:16:38.645Z,1013.12
2017-10-28T07:17:38.636Z,1013.15
2017-10-28T07:18:38.644Z,1013.07
2017-10-28T07:19:38.616Z,1013.07
2017-10-28T07:20:38.602Z,1013.06
2017-10-28T07:21:38.594Z,1013.10
2017-10-28T07:22:38.587Z,1013.09
2017-10-28T07:23:38.576Z,1013.09
2017-10-28T07:24:38.573Z,1013.08
2017-10-28T07:25:38.556Z,1013.05
2017-10-28T07:26:38.543Z,1013.15
2017-10-28T07:27:38.534Z,1013.15
2017-10-28T07:28:38.526Z,1013.21
2017-10-28T07:29:38.510Z,1013.30
2017-10-28T07:30:38.514Z,1013.37
2017-10-28T07:31:38.492Z,1013.36
2017-10-28T07:32:38.490Z,1013.44
2017-10-28T07:33:38.470Z,1013.46
2017-10-28T07:34:38.463Z,1013.29
2017-10-28T07:35:38.450Z,1013.27
2017-10-28T07:36:38.447Z,1013.34
2017-10-28T07:37:38.429Z,1013.41
2017-10-28T07:38:38.421Z,1013.43
2017-10-28T07:39:38.412Z,1013.42
2017-10-28T07:40:38.400Z,1013.47
2017-10-28T07:41:38.391Z,1013.47
2017-10-28T07:42:38.381Z,1013.48
2017-10-28T07:43:38.369Z,1013.46
2017-10-28T07:44:38.358Z,1013.55
2017-10-28T07:45:38.348Z,1013.47
2017-10-28T07:46:38.340Z,1013.53
2017-10-28T07:47:38.325Z,1013.45
2017-10-28T07:48:38.322Z,1013.54
2017-10-28T07:49:38.307Z,1013.49
2017-10-28T07:50:38.298Z,1013.42
2017-10-28T07:51:38.286Z,1013.52
2017-10-28T07:52:38.277Z,1013.44
2017-10-28T07:53:38.265Z,1013.30
2017-10-28T07:54:38.255Z,1013.42
2017-10-28T07:55:38.254Z,1013.48
2017-10-28T07:56:38.235Z,1013.44
2017-10-28T07:57:38.233Z,1013.42
2017-10-28T07:58:38.214Z,1013.29
2017-10-28T07:59:38.207Z,1013.41
2017-10-28T08:00:38.199Z,1013.26
2017-10-28T08:01:38.184Z,1013.22
2017-10-28T08:02:38.182Z,1013.16
2017-10-28T08:03:38.171Z,1013.10
2017-10-28T08:04:38.153Z,1013.03
2017-10-28T08:05:38.146Z,1012.88
2017-10-28T08:06:38.140Z,1013.04
2017-10-28T08:07:38.124Z,1012.95
2017-10-28T08:08:38.119Z,1013.01
2017-10-28T08:09:38.102Z,1013.08
2017-10-28T08:10:38.093Z,1013.14
2017-10-28T08:11:38.086Z,1013.18
2017-10-28T08:12:38.074Z,1013.11
2017-10-28T08:13:38.063Z,1013.13
2017-10-28T08:14:38.062Z,1013.18
2017-10-28T08:15:38.046Z,1013.13
2017-10-28T08:16:38.031Z,1013.19
2017-10-28T08:17:38.024Z,1013.19
2017-10-28T08:18:38.014Z,1013.28
2017-10-28T08:19:38.009Z,1013.30
2017-10-28T08:20:37.992Z,1013.27
2017-10-28T08:21:37.982Z,1013.24
2017-10-28T08:22:37.975Z,1013.40
2017-10-28T08:23:37.962Z,1013.28
2017-10-28T08:24:37.958Z,1013.34
2017-10-28T08:25:37.947Z,1013.25
2017-10-28T08:26:37.933Z,1013.36
2017-10-28T08:27:37.924Z,1013.26
2017-10-28T08:28:37.912Z,1013.27
2017-10-28T08:29:37.904Z,1013.16
2017-10-28T08:30:37.894Z,1013.01
2017-10-28T08:31:37.890Z,1013.17
2017-10-28T08:32:37.873Z,1013.00
2017-10-28T08:33:37.862Z,1013.00
2017-10-28T08:34:37.852Z,1012.98
2017-10-28T08:35:37.845Z,1013.02
2017-10-28T08:36:37.836Z,1013.00
2017-10-28T08:37:37.821Z,1013.03
2017-10-28T08:38:37.814Z,1013.05
2017-10-28T08:39:37.802Z,1013.01
2017-10-28T08:40:37.792Z,1012.98
2017-10-28T08:41:37.781Z,1013.00
2017-10-28T08:42:37.778Z,1013.08
2017-10-28T08:43:37.763Z,1013.07
2017-10-28T08:44:37.754Z,1012.96
2017-10-28T08:45:37.743Z,1012.91
2017-10-28T08:46:37.738Z,1012.88
2017-10-28T08:47:37.725Z,1012.84
2017-10-28T08:48:37.717Z,1012.85
2017-10-28T08:49:37.703Z,1012.74
2017-10-28T08:50:37.697Z,1012.69
2017-10-28T08:51:37.686Z,1012.67
2017-10-28T08:52:37.676Z,1012.69
2017-10-28T08:53:37.665Z,1012.66
2017-10-28T08:54:37.656Z,1012.68
2017-10-28T08:55:37.672Z,1012.74
2017-10-28T08:56:37.639Z,1012.65
2017-10-28T08:57:37.624Z,1012.63
2017-10-28T08:58:37.615Z,1012.62
2017-10-28T08:59:37.607Z,1012.62
2017-10-28T09:00:37.595Z,1012.55
2017-10-28T09:01:37.585Z,1012.54
2017-10-28T09:02:37.581Z,1012.58
2017-10-28T09:03:37.566Z,1012.48
2017-10-28T09:04:37.557Z,1012.47
2017-10-28T09:05:37.547Z,1012.44
2017-10-28T09:06:37.542Z,1012.43
2017-10-28T09:07:37.527Z,1012.47
2017-10-28T09:08:37.518Z,1012.41
2017-10-28T09:09:37.507Z,1012.36
2017-10-28T09:10:37.498Z,1012.40
2017-10-28T09:11:37.497Z,1012.29
2017-10-28T09:12:37.477Z,1012.34
2017-10-28T09:13:37.470Z,1012.15
2017-10-28T09:14:37.459Z,1012.24
2017-10-28T09:15:37.449Z,1012.27
2017-10-28T09:16:37.440Z,1012.22
2017-10-28T09:17:37.432Z,1012.26
2017-10-28T09:18:37.422Z,1012.30
2017-10-28T09:19:37.417Z,1012.25
2017-10-28T09:20:37.399Z,1012.12
2017-10-28T09:21:37.398Z,1012.12
2017-10-28T09:22:37.381Z,1012.16
2017-10-28T09:23:37.370Z,1012.04
2017-10-28T09:24:37.361Z,1012.17
2017-10-28T09:25:37.360Z,1012.18
2017-10-28T09:26:37.344Z,1012.20
2017-10-28T09:27:37.337Z,1012.22
2017-10-28T09:28:37.324Z,1012.32
2017-10-28T09:29:37.314Z,1012.20
2017-10-28T09:30:37.303Z,1012.21
2017-10-28T09:31:37.294Z,1012.22
2017-10-28T09:32:37.285Z,1012.18
2017-10-28T09:33:37.275Z,1012.07
2017-10-28T09:34:37.284Z,1012.09
2017-10-28T09:35:37.273Z,1012.13
2017-10-28T09:36:37.253Z,1012.08
2017-10-28T09:37:37.237Z,1012.21
2017-10-28T09:38:37.225Z,1012.17
2017-10-28T09:39:37.218Z,1012.12
2017-10-28T09:40:37.207Z,1012.14
2017-10-28T09:41:37.196Z,1012.24
2017-10-28T09:42:37.192Z,1012.25
2017-10-28T09:43:37.178Z,1012.24
2017-10-28T09:44:37.173Z,1012.22
2017-10-28T09:45:37.158Z,1012.13
2017-10-28T09:46:37.155Z,1012.11
2017-10-28T09:47:37.141Z,1012.11
2017-10-28T09:48:37.134Z,1012.07
2017-10-28T09:49:37.118Z,1011.98
2017-10-28T09:50:37.115Z,1012.19
2017-10-28T09:51:37.106Z,1012.06
2017-10-28T09:52:37.108Z,1012.19
2017-10-28T09:53:37.082Z,1012.24
2017-10-28T09:54:37.071Z,1012.26
2017-10-28T09:55:37.068Z,1012.21
2017-10-28T09:56:37.054Z,1012.27
2017-10-28T09:57:37.043Z,1012.33
2017-10-28T09:58:37.051Z,1012.21
2017-10-28T09:59:37.035Z,1012.23
2017-10-28T10:00:37.012Z,1011.99
2017-10-28T10:01:37.017Z,1012.18
2017-10-28T10:02:36.998Z,1012.25
2017-10-28T10:03:36.993Z,1012.20
2017-10-28T10:04:36.975Z,1012.14
2017-10-28T10:05:36.973Z,1012.12
2017-10-28T10:06:36.956Z,1012.16
2017-10-28T10:07:36.947Z,1012.12
2017-10-28T10:08:36.937Z,1012.06
2017-10-28T10:09:36.926Z,1012.18
2017-10-28T10:10:36.919Z,1012.08
2017-10-28T10:11:36.914Z,1012.14
2017-10-28T10:12:36.898Z,1012.18
2017-10-28T10:13:36.890Z,1012.12
2017-10-28T10:14:36.882Z,1012.01
2017-10-28T10:15:36.869Z,1012.01
2017-10-28T10:16:36.858Z,1011.99
2017-10-28T10:17:36.856Z,1011.94
2017-10-28T10:18:36.840Z,1012.01
2017-10-28T10:19:36.832Z,1011.95
2017-10-28T10:20:36.820Z,1011.68
2017-10-28T10:21:36.816Z,1011.92
2017-10-28T10:22:36.803Z,1011.92
2017-10-28T10:23:36.846Z,1011.72
2017-10-28T10:24:36.796Z,1011.64
2017-10-28T10:25:36.774Z,1011.75
2017-10-28T10:26:36.762Z,1011.77
2017-10-28T10:27:36.760Z,1011.73
2017-10-28T10:28:36.750Z,1011.70
2017-10-28T10:29:36.734Z,1011.75
2017-10-28T10:30:36.745Z,1011.73
2017-10-28T10:31:36.719Z,1011.66
2017-10-28T10:32:36.722Z,1011.73
2017-10-28T10:33:37.681Z,1011.74
2017-10-28T10:34:36.693Z,1011.60
2017-10-28T10:35:36.678Z,1011.63
2017-10-28T10:36:36.675Z,1011.50
2017-10-28T10:37:36.691Z,1011.52
2017-10-28T10:38:36.669Z,1011.48
2017-10-28T10:39:36.646Z,1011.52
2017-10-28T10:40:36.629Z,1011.52
2017-10-28T10:41:36.617Z,1011.53
2017-10-28T10:42:36.610Z,1011.56
2017-10-28T10:43:36.598Z,1011.57
2017-10-28T10:44:36.593Z,1011.47
2017-10-28T10:45:36.586Z,1011.61
2017-10-28T10:46:36.572Z,1011.56
2017-10-28T10:47:36.571Z,1011.52
2017-10-28T10:48:36.552Z,1011.58
2017-10-28T10:49:36.543Z,1011.52
2017-10-28T10:50:36.533Z,1011.47
2017-10-28T10:51:36.547Z,1011.49
2017-10-28T10:52:36.514Z,1011.48
2017-10-28T10:53:36.509Z,1011.38
2017-10-28T10:54:36.495Z,1011.49
2017-10-28T10:55:36.486Z,1011.47
2017-10-28T10:56:36.480Z,1011.50
2017-10-28T10:57:36.466Z,1011.46
2017-10-28T10:58:36.458Z,1011.53
2017-10-28T10:59:36.458Z,1011.42
2017-10-28T11:00:36.438Z,1011.39
2017-10-28T11:01:36.429Z,1011.30
2017-10-28T11:02:36.422Z,1011.29
2017-10-28T11:03:36.409Z,1011.29
2017-10-28T11:04:36.408Z,1011.28
2017-10-28T11:05:36.399Z,1011.22
2017-10-28T11:06:36.391Z,1011.12
2017-10-28T11:07:36.377Z,1011.12
2017-10-28T11:08:36.364Z,1011.04
2017-10-28T11:09:36.353Z,1011.04
2017-10-28T11:10:36.352Z,1011.10
2017-10-28T11:11:36.336Z,1011.08
2017-10-28T11:12:36.328Z,1011.03
2017-10-28T11:13:36.317Z,1011.03
2017-10-28T11:14:36.306Z,1011.11
2017-10-28T11:15:36.301Z,1011.09
2017-10-28T11:16:36.287Z,1011.13
2017-10-28T11:17:36.279Z,1011.01
2017-10-28T11:18:36.271Z,1010.98
2017-10-28T11:19:36.270Z,1010.85
2017-10-28T11:20:36.251Z,1010.85
2017-10-28T11:21:36.242Z,1010.79
2017-10-28T11:22:36.233Z,1010.83
2017-10-28T11:23:36.223Z,1010.92
2017-10-28T11:24:36.213Z,1010.80
2017-10-28T11:25:36.209Z,1010.79
2017-10-28T11:26:36.196Z,1010.80
2017-10-28T11:27:36.185Z,1010.77
2017-10-28T11:28:36.182Z,1010.71
2017-10-28T11:29:36.167Z,1010.69
2017-10-28T11:30:36.163Z,1010.61
2017-10-28T11:31:36.156Z,1010.61
2017-10-28T11:32:36.141Z,1010.73
2017-10-28T11:33:36.129Z,1010.69
2017-10-28T11:34:36.122Z,1010.62
2017-10-28T11:35:36.112Z,1010.78
2017-10-28T11:36:36.103Z,1010.78
2017-10-28T11:37:36.095Z,1010.79
2017-10-28T11:38:36.087Z,1010.84
2017-10-28T11:39:36.083Z,1010.82
2017-10-28T11:40:36.073Z,1010.77
2017-10-28T11:41:36.055Z,1010.86
2017-10-28T11:42:36.045Z,1010.81
2017-10-28T11:43:36.040Z,1010.83
2017-10-28T11:44:36.026Z,1010.86
2017-10-28T11:45:36.021Z,1010.85
2017-10-28T11:46:36.008Z,1010.86
2017-10-28T11:47:35.999Z,1010.79
2017-10-28T11:48:35.990Z,1010.78
2017-10-28T11:49:35.980Z,1010.62
2017-10-28T11:50:35.971Z,1010.57
2017-10-28T11:51:35.969Z,1010.56
2017-10-28T11:52:35.951Z,1010.54
2017-10-28T11:53:35.948Z,1010.55
2017-10-28T11:54:35.938Z,1010.62
2017-10-28T11:55:35.927Z,1010.45
2017-10-28T11:56:35.915Z,1010.46
2017-10-28T11:57:35.910Z,1010.37
2017-10-28T11:58:35.897Z,1010.42
2017-10-28T11:59:35.889Z,1010.36
2017-10-28T12:00:35.876Z,1010.39
2017-10-28T12:01:35.867Z,1010.42
2017-10-28T12:02:35.860Z,1010.38
2017-10-28T12:03:35.849Z,1010.28
2017-10-28T12:04:35.838Z,1010.23
2017-10-28T12:05:35.832Z,1010.25